Time;durP1;ratioP1;P1;durP2;ratioP2;P2;SDS_P1;SDS_P2;PMS_P1;PMS_P2;Temp;Humidity;BMP_temperature;BMP_pressure;BME280_temperature;BME280_humidity;BME280_pressure;Samples;Min_cycle;Max_cycle;Signal;HPM_P1;HPM_P2
2023/12/27 00:01:27;;;;;;;10.67;4.43;;;7.70;99.90;;;;;;5045005;28;20517;-69
2023/12/27 00:03:55;;;;;;;10.67;4.03;;;7.80;99.90;;;;;;5042652;28;20524;-70
2023/12/27 00:06:24;;;;;;;11.97;4.00;;;7.70;99.90;;;;;;5041526;28;20488;-69
2023/12/27 00:08:53;;;;;;;9.93;4.40;;;7.80;99.90;;;;;;5045578;28;20846;-68
2023/12/27 00:11:21;;;;;;;10.83;4.10;;;7.80;99.90;;;;;;5045050;28;20460;-71
2023/12/27 00:13:49;;;;;;;10.17;3.90;;;7.80;99.90;;;;;;5043927;28;20493;-72
2023/12/27 00:16:17;;;;;;;11.50;3.90;;;7.70;99.90;;;;;;5045637;28;20452;-69
2023/12/27 00:18:45;;;;;;;10.80;4.37;;;7.80;99.90;;;;;;5046327;28;20554;-68
2023/12/27 00:21:13;;;;;;;9.70;3.80;;;7.90;99.90;;;;;;5046364;28;20459;-72
2023/12/27 00:23:41;;;;;;;10.60;4.37;;;7.90;99.90;;;;;;5045994;28;20459;-72
2023/12/27 00:26:11;;;;;;;12.70;4.40;;;8.00;99.90;;;;;;5042093;28;20481;-69
2023/12/27 00:28:39;;;;;;;8.80;4.10;;;7.90;99.90;;;;;;5043269;28;20556;-72
2023/12/27 00:31:06;;;;;;;11.20;4.93;;;7.90;99.90;;;;;;5046386;28;20519;-68
2023/12/27 00:33:35;;;;;;;14.10;4.80;;;7.80;99.90;;;;;;5046558;28;21069;-73
2023/12/27 00:36:04;;;;;;;10.13;4.20;;;7.80;99.90;;;;;;5046042;28;20446;-71
2023/12/27 00:38:32;;;;;;;11.23;4.33;;;7.80;99.90;;;;;;5046115;28;20470;-69
2023/12/27 00:41:01;;;;;;;9.77;3.97;;;7.80;99.90;;;;;;5038946;28;20461;-69
2023/12/27 00:43:30;;;;;;;9.07;3.73;;;7.80;99.90;;;;;;5040835;28;20450;-69
2023/12/27 00:45:58;;;;;;;9.50;3.90;;;7.80;99.90;;;;;;5045504;28;20501;-70
2023/12/27 00:48:26;;;;;;;12.07;4.50;;;7.90;99.90;;;;;;5045471;28;20471;-68
2023/12/27 00:50:54;;;;;;;9.87;4.53;;;7.90;99.90;;;;;;5045609;28;20456;-67
2023/12/27 00:53:22;;;;;;;10.33;4.37;;;7.90;99.90;;;;;;5045421;28;20449;-67
2023/12/27 00:55:50;;;;;;;8.80;4.10;;;7.90;99.90;;;;;;5045106;28;20471;-67
2023/12/27 00:58:18;;;;;;;9.13;3.80;;;7.90;99.90;;;;;;5045627;28;20503;-69
2023/12/27 01:00:48;;;;;;;11.30;4.27;;;7.80;99.90;;;;;;5045368;28;20544;-68
2023/12/27 01:03:16;;;;;;;11.90;4.40;;;7.80;99.90;;;;;;5037824;28;20549;-69
2023/12/27 01:05:44;;;;;;;11.50;4.93;;;7.70;99.90;;;;;;5044931;28;20480;-70
2023/12/27 01:08:11;;;;;;;9.90;3.70;;;7.70;99.90;;;;;;5045652;28;20551;-69
2023/12/27 01:10:39;;;;;;;9.23;3.70;;;7.70;99.90;;;;;;5051405;28;20450;-68
2023/12/27 01:13:07;;;;;;;11.87;4.13;;;7.70;99.90;;;;;;5045244;28;20456;-68
2023/12/27 01:15:35;;;;;;;11.03;4.50;;;7.80;99.90;;;;;;5044157;28;20443;-68
2023/12/27 01:18:05;;;;;;;9.33;3.97;;;7.70;99.90;;;;;;5045633;28;20471;-68
2023/12/27 01:20:34;;;;;;;12.17;4.27;;;7.70;99.90;;;;;;5045421;28;20455;-69
2023/12/27 01:23:02;;;;;;;10.73;4.40;;;7.80;99.90;;;;;;5045580;28;20448;-67
2023/12/27 01:25:30;;;;;;;12.23;4.43;;;7.90;99.90;;;;;;5043178;28;20483;-65
2023/12/27 01:27:58;;;;;;;10.43;4.13;;;7.90;99.90;;;;;;5066006;28;21071;-68
2023/12/27 01:30:26;;;;;;;10.13;4.20;;;7.90;99.90;;;;;;5047395;28;20459;-70
2023/12/27 01:32:54;;;;;;;10.50;4.20;;;7.80;99.90;;;;;;5044572;28;21035;-70
2023/12/27 01:35:24;;;;;;;10.60;3.90;;;7.80;99.90;;;;;;5045841;28;20455;-71
2023/12/27 01:37:52;;;;;;;12.40;4.60;;;7.80;99.90;;;;;;5046306;28;20471;-69
2023/12/27 01:40:20;;;;;;;10.30;4.03;;;7.90;99.90;;;;;;5040012;28;20443;-69
2023/12/27 01:42:48;;;;;;;9.13;4.00;;;7.90;99.90;;;;;;5048165;28;20470;-69
2023/12/27 01:45:16;;;;;;;9.27;3.80;;;7.90;99.90;;;;;;5047698;28;20543;-71
2023/12/27 01:47:44;;;;;;;12.83;3.90;;;7.90;99.90;;;;;;5047857;28;20471;-70
2023/12/27 01:50:13;;;;;;;10.67;4.80;;;7.90;99.90;;;;;;5059541;28;20542;-68
2023/12/27 01:52:43;;;;;;;9.73;3.87;;;7.80;99.90;;;;;;5059490;28;20990;-72
2023/12/27 01:55:12;;;;;;;12.47;4.77;;;7.80;99.90;;;;;;5057143;28;20452;-70
2023/12/27 01:57:41;;;;;;;12.00;4.03;;;7.80;99.90;;;;;;5053846;28;20454;-69
2023/12/27 02:00:10;;;;;;;12.70;4.20;;;7.70;99.90;;;;;;5051869;28;20484;-71
2023/12/27 02:02:38;;;;;;;11.10;4.20;;;7.80;99.90;;;;;;5047664;28;20940;-69
2023/12/27 02:05:07;;;;;;;9.27;4.00;;;7.70;99.90;;;;;;5047230;28;20447;-69
2023/12/27 02:07:36;;;;;;;9.30;3.60;;;7.70;99.90;;;;;;5047615;28;20880;-70
2023/12/27 02:10:07;;;;;;;9.80;4.00;;;7.60;99.90;;;;;;5047632;28;20562;-69
2023/12/27 02:12:35;;;;;;;10.60;3.73;;;7.70;99.90;;;;;;5047355;28;20501;-70
2023/12/27 02:15:06;;;;;;;13.17;4.60;;;7.70;99.90;;;;;;5047211;28;20558;-69
2023/12/27 02:17:37;;;;;;;10.67;4.17;;;7.80;99.90;;;;;;5047341;28;20520;-69
2023/12/27 02:20:07;;;;;;;11.50;4.67;;;7.80;99.90;;;;;;5047475;28;20457;-70
2023/12/27 02:22:45;;;;;;;11.97;4.83;;;7.70;99.90;;;;;;5055992;28;20442;-71
2023/12/27 02:25:18;;;;;;;10.67;4.40;;;7.60;99.90;;;;;;5056215;28;20432;-69
2023/12/27 02:27:46;;;;;;;16.30;6.13;;;7.60;99.90;;;;;;5046916;28;20539;-70
2023/12/27 02:30:19;;;;;;;10.73;4.80;;;7.60;99.90;;;;;;5048948;28;20928;-71
2023/12/27 02:32:47;;;;;;;10.80;3.73;;;7.60;99.90;;;;;;5052967;28;20465;-68
2023/12/27 02:35:16;;;;;;;10.40;4.30;;;7.60;99.90;;;;;;5057961;28;21050;-72
2023/12/27 02:37:45;;;;;;;12.30;4.60;;;7.70;99.90;;;;;;5064151;28;20463;-69
2023/12/27 02:40:14;;;;;;;11.90;4.53;;;7.70;99.90;;;;;;5051097;28;20458;-69
2023/12/27 02:42:42;;;;;;;12.97;4.67;;;7.60;99.90;;;;;;5046850;28;20455;-69
2023/12/27 02:45:10;;;;;;;10.83;4.00;;;7.50;99.90;;;;;;5046201;28;20479;-71
2023/12/27 02:47:38;;;;;;;11.33;4.53;;;7.50;99.90;;;;;;5046590;28;20491;-69
2023/12/27 02:50:07;;;;;;;11.10;5.10;;;7.50;99.90;;;;;;5046675;28;20465;-72
2023/12/27 02:52:35;;;;;;;10.03;4.50;;;7.60;99.90;;;;;;5046812;28;20489;-69
2023/12/27 02:55:04;;;;;;;10.70;4.50;;;7.50;99.90;;;;;;5046454;28;20457;-69
2023/12/27 02:57:34;;;;;;;11.23;4.13;;;7.50;99.90;;;;;;5046427;28;20627;-69
2023/12/27 03:00:03;;;;;;;13.57;4.00;;;7.40;99.90;;;;;;5046148;28;20446;-69
2023/12/27 03:02:31;;;;;;;10.23;3.77;;;7.40;99.90;;;;;;5044842;28;20873;-70
2023/12/27 03:04:59;;;;;;;9.30;3.80;;;7.40;99.90;;;;;;5045874;28;21053;-70
2023/12/27 03:07:27;;;;;;;9.27;3.20;;;7.40;99.90;;;;;;5046054;28;21066;-70
2023/12/27 03:09:55;;;;;;;9.57;3.63;;;7.30;99.90;;;;;;5045995;28;20979;-69
2023/12/27 03:12:23;;;;;;;9.07;3.33;;;7.40;99.90;;;;;;5045652;28;20580;-71
2023/12/27 03:14:52;;;;;;;10.50;3.90;;;7.40;99.90;;;;;;5045172;28;20677;-72
2023/12/27 03:17:20;;;;;;;8.30;3.20;;;7.50;99.90;;;;;;5046292;28;20492;-70
2023/12/27 03:19:48;;;;;;;10.07;3.90;;;7.50;99.90;;;;;;5046104;28;20836;-69
2023/12/27 03:22:16;;;;;;;12.70;3.77;;;7.50;99.90;;;;;;5045872;28;20509;-70
2023/12/27 03:24:44;;;;;;;9.97;3.83;;;7.50;99.90;;;;;;5045346;28;20484;-69
2023/12/27 03:27:12;;;;;;;9.73;3.70;;;7.50;99.90;;;;;;5046055;28;20529;-70
2023/12/27 03:29:40;;;;;;;9.67;3.83;;;7.50;99.90;;;;;;5045529;28;20470;-71
2023/12/27 03:32:09;;;;;;;10.03;3.90;;;7.50;99.90;;;;;;5045903;28;20557;-69
2023/12/27 03:34:38;;;;;;;8.77;3.40;;;7.40;99.90;;;;;;5045491;28;20933;-72
2023/12/27 03:37:06;;;;;;;10.87;3.20;;;7.40;99.90;;;;;;5045778;28;20474;-72
2023/12/27 03:39:34;;;;;;;9.83;3.43;;;7.40;99.90;;;;;;5045575;28;21256;-71
2023/12/27 03:42:02;;;;;;;9.67;2.93;;;7.40;99.90;;;;;;5045820;28;20551;-70
2023/12/27 03:44:30;;;;;;;10.53;3.60;;;7.40;99.90;;;;;;5042448;28;20473;-69
2023/12/27 03:46:58;;;;;;;10.27;2.80;;;7.40;99.90;;;;;;5044616;28;20533;-70
2023/12/27 03:49:27;;;;;;;8.50;3.07;;;7.40;99.90;;;;;;5044322;28;20668;-70
2023/12/27 03:51:55;;;;;;;12.63;3.03;;;7.50;99.90;;;;;;5044930;28;20491;-72
2023/12/27 03:54:23;;;;;;;8.80;2.90;;;7.50;99.90;;;;;;5039123;28;20581;-69
2023/12/27 03:56:51;;;;;;;10.93;2.53;;;7.50;99.90;;;;;;5044201;28;20482;-69
2023/12/27 03:59:19;;;;;;;8.03;2.70;;;7.50;99.90;;;;;;5044330;28;20478;-71
2023/12/27 04:01:47;;;;;;;7.80;2.30;;;7.40;99.90;;;;;;5044641;28;20965;-70
2023/12/27 04:04:15;;;;;;;8.37;2.97;;;7.30;99.90;;;;;;5044115;28;20471;-70
2023/12/27 04:06:45;;;;;;;8.67;2.60;;;7.30;99.90;;;;;;5044283;28;20447;-71
2023/12/27 04:09:13;;;;;;;10.53;2.80;;;7.30;99.90;;;;;;5044445;28;20483;-72
2023/12/27 04:11:45;;;;;;;9.20;2.90;;;7.30;99.90;;;;;;5044438;28;20480;-71
2023/12/27 04:14:15;;;;;;;8.43;2.17;;;7.30;99.90;;;;;;5045050;28;20476;-69
2023/12/27 04:16:43;;;;;;;9.80;3.13;;;7.30;99.90;;;;;;5045395;28;20470;-70
2023/12/27 04:19:11;;;;;;;9.13;2.53;;;7.30;99.90;;;;;;5045291;28;20527;-69
2023/12/27 04:21:41;;;;;;;9.53;2.67;;;7.20;99.90;;;;;;5045532;28;21104;-69
2023/12/27 04:24:10;;;;;;;10.87;2.83;;;7.20;99.90;;;;;;5045129;28;20566;-69
2023/12/27 04:26:39;;;;;;;10.47;3.30;;;7.20;99.90;;;;;;5044675;28;20550;-70
2023/12/27 04:29:08;;;;;;;9.53;2.70;;;7.20;99.90;;;;;;5045538;28;20496;-70
2023/12/27 04:31:37;;;;;;;7.93;2.33;;;7.20;99.90;;;;;;5045151;28;20571;-70
2023/12/27 04:34:05;;;;;;;7.47;2.20;;;7.20;99.90;;;;;;5045488;28;20479;-71
2023/12/27 04:36:35;;;;;;;7.63;2.20;;;7.20;99.90;;;;;;5044841;28;20475;-71
2023/12/27 04:39:04;;;;;;;9.67;2.37;;;7.20;99.90;;;;;;5045481;28;20570;-70
2023/12/27 04:41:33;;;;;;;7.93;2.60;;;7.20;99.90;;;;;;5045273;28;20480;-71
2023/12/27 04:44:01;;;;;;;9.37;2.67;;;7.20;99.90;;;;;;5045002;28;20564;-70
2023/12/27 04:46:29;;;;;;;10.57;3.13;;;7.20;99.90;;;;;;5044832;28;20456;-71
2023/12/27 04:48:57;;;;;;;8.70;3.00;;;7.20;99.90;;;;;;5045158;28;20575;-69
2023/12/27 04:51:25;;;;;;;9.07;3.00;;;7.30;99.90;;;;;;5046650;28;20466;-69
2023/12/27 04:53:56;;;;;;;8.40;2.73;;;7.30;99.90;;;;;;5048809;28;20470;-71
2023/12/27 04:56:24;;;;;;;8.90;3.20;;;7.40;99.90;;;;;;5048511;28;20453;-72
2023/12/27 04:58:53;;;;;;;11.20;3.23;;;7.30;99.90;;;;;;5048996;28;20487;-71
2023/12/27 05:01:21;;;;;;;8.83;2.90;;;7.30;99.90;;;;;;5048591;28;20558;-70
2023/12/27 05:03:50;;;;;;;7.90;3.00;;;7.40;99.90;;;;;;5046205;28;20483;-72
2023/12/27 05:06:18;;;;;;;11.67;3.47;;;7.40;99.90;;;;;;5047892;28;20451;-68
2023/12/27 05:08:47;;;;;;;8.83;2.90;;;7.40;99.90;;;;;;5048424;28;20493;-70
2023/12/27 05:11:17;;;;;;;8.87;2.83;;;7.30;99.90;;;;;;5048436;28;21002;-71
2023/12/27 05:13:49;;;;;;;10.57;3.30;;;7.40;99.90;;;;;;5048088;28;20554;-69
2023/12/27 05:16:18;;;;;;;10.87;2.80;;;7.50;99.90;;;;;;5048125;28;20534;-70
2023/12/27 05:18:46;;;;;;;10.63;3.23;;;7.50;99.90;;;;;;5048560;28;20468;-70
2023/12/27 05:21:18;;;;;;;10.40;2.77;;;7.40;99.90;;;;;;5048414;28;20452;-71
2023/12/27 05:23:46;;;;;;;8.93;2.90;;;7.30;99.90;;;;;;5043048;28;20585;-69
2023/12/27 05:26:14;;;;;;;9.03;3.40;;;7.30;99.90;;;;;;5048022;28;20476;-70
2023/12/27 05:28:42;;;;;;;9.83;3.20;;;7.20;99.90;;;;;;5053980;28;20575;-69
2023/12/27 05:31:10;;;;;;;8.70;3.50;;;7.20;99.90;;;;;;5065200;28;20524;-70
2023/12/27 05:33:40;;;;;;;8.53;2.97;;;7.10;99.90;;;;;;5062564;28;20470;-71
2023/12/27 05:36:08;;;;;;;8.27;2.90;;;7.00;99.90;;;;;;5057569;28;20447;-69
2023/12/27 05:38:36;;;;;;;9.87;3.80;;;6.90;99.90;;;;;;5062212;28;20464;-69
2023/12/27 05:41:04;;;;;;;9.90;3.57;;;6.80;99.90;;;;;;5053685;28;20478;-69
2023/12/27 05:43:32;;;;;;;8.80;3.23;;;6.70;99.90;;;;;;5048136;28;20563;-69
2023/12/27 05:46:00;;;;;;;12.07;4.07;;;6.70;99.90;;;;;;5047757;28;20508;-69
2023/12/27 05:48:28;;;;;;;10.90;3.50;;;6.60;99.90;;;;;;5047897;28;20491;-69
2023/12/27 05:50:58;;;;;;;10.03;3.90;;;6.80;99.90;;;;;;5048333;28;20457;-70
2023/12/27 05:53:26;;;;;;;9.10;3.00;;;6.90;99.90;;;;;;5048110;28;20548;-70
2023/12/27 05:55:54;;;;;;;8.13;2.73;;;6.80;99.90;;;;;;5047258;28;20523;-71
2023/12/27 05:58:22;;;;;;;9.50;3.10;;;6.80;99.90;;;;;;5047692;28;20472;-71
2023/12/27 06:00:50;;;;;;;11.00;4.70;;;6.70;99.90;;;;;;5047722;28;20997;-68
2023/12/27 06:03:18;;;;;;;9.83;3.00;;;6.70;99.90;;;;;;5046935;28;20461;-70
2023/12/27 06:05:46;;;;;;;11.90;3.73;;;6.70;99.90;;;;;;5046639;28;20451;-71
2023/12/27 06:08:18;;;;;;;9.43;3.27;;;6.60;99.90;;;;;;5047293;28;20594;-69
2023/12/27 06:10:46;;;;;;;9.00;3.20;;;6.50;99.90;;;;;;5047495;28;20441;-71
2023/12/27 06:13:14;;;;;;;8.67;3.20;;;6.50;99.90;;;;;;5047227;28;20995;-70
2023/12/27 06:15:43;;;;;;;9.30;3.00;;;6.40;99.90;;;;;;5046942;28;21041;-72
2023/12/27 06:18:11;;;;;;;8.80;3.00;;;6.30;99.90;;;;;;5054712;28;20476;-71
2023/12/27 06:20:39;;;;;;;11.57;3.13;;;6.20;99.90;;;;;;5059442;28;20457;-69
2023/12/27 06:23:06;;;;;;;8.50;3.07;;;6.10;99.90;;;;;;5063324;28;20558;-70
2023/12/27 06:25:36;;;;;;;9.80;2.60;;;6.10;99.90;;;;;;5053411;28;20990;-72
2023/12/27 06:28:05;;;;;;;9.63;3.23;;;6.10;99.90;;;;;;5054597;28;20523;-69
2023/12/27 06:30:33;;;;;;;13.00;4.40;;;6.00;99.90;;;;;;5041433;28;20469;-69
2023/12/27 06:33:01;;;;;;;10.07;3.30;;;5.90;99.90;;;;;;5046845;28;20877;-70
2023/12/27 06:35:29;;;;;;;9.50;3.27;;;5.90;99.90;;;;;;5056559;28;20472;-71
2023/12/27 06:37:57;;;;;;;8.40;2.90;;;5.90;99.90;;;;;;5060626;28;20464;-70
2023/12/27 06:40:25;;;;;;;9.60;3.10;;;5.80;99.90;;;;;;5058557;28;20464;-71
2023/12/27 06:42:55;;;;;;;9.80;3.40;;;5.70;99.90;;;;;;5059599;28;20448;-70
2023/12/27 06:45:23;;;;;;;11.20;3.43;;;5.80;99.90;;;;;;5052916;28;21029;-69
2023/12/27 06:47:51;;;;;;;11.60;3.60;;;5.80;99.90;;;;;;5049831;28;20565;-71
2023/12/27 06:50:19;;;;;;;9.57;3.00;;;6.00;99.90;;;;;;5046444;28;20487;-71
2023/12/27 06:52:47;;;;;;;9.70;3.80;;;6.00;99.90;;;;;;5047009;28;20454;-72
2023/12/27 06:55:15;;;;;;;13.40;4.10;;;5.90;99.90;;;;;;5046111;28;20472;-68
2023/12/27 06:57:43;;;;;;;11.20;3.77;;;5.90;99.90;;;;;;5046632;28;20577;-68
2023/12/27 07:00:16;;;;;;;9.20;3.03;;;6.00;99.90;;;;;;5046585;28;20464;-70
2023/12/27 07:02:44;;;;;;;12.50;3.70;;;6.10;99.90;;;;;;5046502;28;21251;-69
2023/12/27 07:05:15;;;;;;;10.03;3.30;;;6.00;99.90;;;;;;5046075;28;20840;-69
2023/12/27 07:07:43;;;;;;;8.67;3.17;;;5.90;99.90;;;;;;5046136;28;20587;-72
2023/12/27 07:10:11;;;;;;;9.83;3.10;;;5.80;99.90;;;;;;5046159;28;20492;-71
2023/12/27 07:12:41;;;;;;;11.53;3.63;;;5.80;99.90;;;;;;5046434;28;20479;-72
2023/12/27 07:15:11;;;;;;;11.27;3.97;;;5.80;99.90;;;;;;5045618;28;20678;-70
2023/12/27 07:17:40;;;;;;;12.27;4.13;;;6.00;99.90;;;;;;5047006;28;20840;-70
2023/12/27 07:20:10;;;;;;;12.17;4.07;;;6.00;99.90;;;;;;5046929;28;20934;-71
2023/12/27 07:22:38;;;;;;;12.10;3.80;;;6.00;99.90;;;;;;5046744;28;20478;-70
2023/12/27 07:25:06;;;;;;;9.47;3.67;;;6.10;99.90;;;;;;5046476;28;20496;-70
2023/12/27 07:27:34;;;;;;;9.83;4.00;;;6.10;99.90;;;;;;5046927;28;20496;-70
2023/12/27 07:30:04;;;;;;;8.33;3.33;;;6.00;99.90;;;;;;5046878;28;20484;-69
2023/12/27 07:32:32;;;;;;;11.30;3.43;;;5.90;99.90;;;;;;5041681;28;20551;-69
2023/12/27 07:35:04;;;;;;;10.27;3.60;;;5.80;99.90;;;;;;5046266;28;21073;-71
2023/12/27 07:37:32;;;;;;;9.60;3.73;;;5.80;99.90;;;;;;5046381;28;20944;-69
2023/12/27 07:40:00;;;;;;;9.47;3.30;;;5.90;99.90;;;;;;5046487;28;21392;-69
2023/12/27 07:42:28;;;;;;;9.53;3.23;;;5.90;99.90;;;;;;5046104;28;20494;-69
2023/12/27 07:44:56;;;;;;;10.90;3.50;;;5.90;99.90;;;;;;5046151;28;20787;-69
2023/12/27 07:47:24;;;;;;;9.83;3.60;;;5.90;99.90;;;;;;5046492;28;20445;-70
2023/12/27 07:49:52;;;;;;;12.60;4.70;;;5.90;99.90;;;;;;5046371;28;20474;-69
2023/12/27 07:52:22;;;;;;;10.87;4.20;;;6.00;99.90;;;;;;5046606;28;20509;-70
2023/12/27 07:54:50;;;;;;;11.20;4.30;;;5.90;99.90;;;;;;5046065;28;20941;-70
2023/12/27 07:57:18;;;;;;;14.57;5.07;;;5.90;99.90;;;;;;5046437;28;20480;-69
2023/12/27 07:59:46;;;;;;;10.27;3.90;;;5.90;99.90;;;;;;5046614;28;20556;-71
2023/12/27 08:02:14;;;;;;;10.17;3.70;;;5.90;99.90;;;;;;5046476;28;20468;-70
2023/12/27 08:04:42;;;;;;;9.90;4.00;;;6.00;99.90;;;;;;5045585;28;20465;-70
2023/12/27 08:07:10;;;;;;;10.63;3.77;;;6.10;99.90;;;;;;5046329;28;21021;-71
2023/12/27 08:09:39;;;;;;;10.10;3.27;;;6.10;99.90;;;;;;5046156;28;20581;-70
2023/12/27 08:12:07;;;;;;;13.03;5.00;;;6.20;99.90;;;;;;5046321;28;20478;-69
2023/12/27 08:14:36;;;;;;;10.43;4.60;;;6.20;99.90;;;;;;5046158;28;20468;-70
2023/12/27 08:17:04;;;;;;;10.47;3.93;;;6.30;99.90;;;;;;5046262;28;20472;-69
2023/12/27 08:19:32;;;;;;;9.90;4.73;;;6.30;99.90;;;;;;5045907;28;20479;-71
2023/12/27 08:22:00;;;;;;;10.20;4.13;;;6.30;99.90;;;;;;5046166;28;20870;-71
2023/12/27 08:24:28;;;;;;;11.30;4.83;;;6.40;99.90;;;;;;5046073;28;20976;-69
2023/12/27 08:26:57;;;;;;;10.70;4.10;;;6.40;99.90;;;;;;5050066;28;20731;-70
2023/12/27 08:29:25;;;;;;;11.73;5.07;;;6.40;99.90;;;;;;5049531;28;20497;-70
2023/12/27 08:31:53;;;;;;;10.27;4.30;;;6.50;99.90;;;;;;5050045;28;21263;-69
2023/12/27 08:34:22;;;;;;;14.50;4.60;;;6.60;99.90;;;;;;5050122;28;20541;-70
2023/12/27 08:36:50;;;;;;;12.57;6.03;;;6.70;99.90;;;;;;5049794;28;20840;-71
2023/12/27 08:39:18;;;;;;;12.40;4.53;;;6.80;99.90;;;;;;5049694;28;20521;-69
2023/12/27 08:41:46;;;;;;;11.90;4.93;;;7.00;99.90;;;;;;5049881;28;20482;-70
2023/12/27 08:44:15;;;;;;;13.63;5.20;;;7.00;99.90;;;;;;5049593;28;20527;-69
2023/12/27 08:46:43;;;;;;;16.37;4.83;;;7.00;99.90;;;;;;5045251;28;20471;-69
2023/12/27 08:49:11;;;;;;;12.20;4.60;;;7.10;99.90;;;;;;5049688;28;20547;-70
2023/12/27 08:51:39;;;;;;;10.60;5.10;;;7.30;99.90;;;;;;5049911;28;20473;-69
2023/12/27 08:54:07;;;;;;;11.60;4.33;;;7.30;99.90;;;;;;5050015;28;20444;-70
2023/12/27 08:56:38;;;;;;;13.67;4.67;;;7.30;99.90;;;;;;5049190;28;20492;-69
2023/12/27 08:59:06;;;;;;;10.10;4.23;;;7.30;99.90;;;;;;5049742;28;20496;-70
2023/12/27 09:01:35;;;;;;;11.17;4.43;;;7.30;99.90;;;;;;5049450;28;20556;-70
2023/12/27 09:04:06;;;;;;;16.63;5.00;;;7.30;99.90;;;;;;5049442;28;20535;-70
2023/12/27 09:06:35;;;;;;;9.90;3.93;;;7.40;99.90;;;;;;5049035;28;20537;-70
2023/12/27 09:09:04;;;;;;;9.80;3.97;;;7.50;99.90;;;;;;5049464;28;20822;-73
2023/12/27 09:11:32;;;;;;;10.77;3.90;;;7.70;99.90;;;;;;5043862;28;20973;-70
2023/12/27 09:14:10;;;;;;;10.13;3.63;;;7.90;99.90;;;;;;5048312;28;20843;-70
2023/12/27 09:16:39;;;;;;;11.43;4.50;;;8.10;99.90;;;;;;5046083;28;20435;-70
2023/12/27 09:19:07;;;;;;;10.77;3.67;;;8.10;99.90;;;;;;5048872;28;20910;-71
2023/12/27 09:21:43;;;;;;;11.53;4.53;;;8.00;99.90;;;;;;5048618;28;20450;-70
2023/12/27 09:24:11;;;;;;;10.27;3.57;;;8.00;99.90;;;;;;5048651;28;20479;-69
2023/12/27 09:26:39;;;;;;;9.57;3.40;;;8.10;99.90;;;;;;5048269;28;20455;-69
2023/12/27 09:29:09;;;;;;;10.43;3.30;;;8.20;99.90;;;;;;5048355;28;20474;-68
2023/12/27 09:31:38;;;;;;;10.97;3.83;;;8.30;99.90;;;;;;5047839;28;21007;-69
2023/12/27 09:34:06;;;;;;;11.63;3.67;;;8.50;99.90;;;;;;5043756;28;20847;-70
2023/12/27 09:36:35;;;;;;;10.00;3.10;;;8.50;99.90;;;;;;5031709;28;20492;-68
2023/12/27 09:39:03;;;;;;;10.90;3.60;;;8.50;99.90;;;;;;5037274;28;20476;-69
2023/12/27 09:41:31;;;;;;;10.20;2.70;;;8.40;99.90;;;;;;5044129;28;20449;-71
2023/12/27 09:44:01;;;;;;;9.73;3.47;;;8.20;99.90;;;;;;5047995;28;20457;-70
2023/12/27 09:46:30;;;;;;;9.70;3.33;;;8.10;99.90;;;;;;5047666;28;20484;-71
2023/12/27 09:49:00;;;;;;;11.63;3.87;;;7.90;99.90;;;;;;5047810;28;20472;-72
2023/12/27 09:51:30;;;;;;;11.60;4.23;;;7.80;99.90;;;;;;5048094;28;21135;-70
2023/12/27 09:53:58;;;;;;;9.57;2.93;;;7.80;99.90;;;;;;5048344;28;20461;-69
2023/12/27 09:56:28;;;;;;;10.00;3.37;;;7.80;99.90;;;;;;5054468;28;20466;-70
2023/12/27 09:58:59;;;;;;;10.73;3.80;;;7.90;99.90;;;;;;5060474;28;20456;-69
2023/12/27 10:01:31;;;;;;;11.50;3.40;;;7.90;99.90;;;;;;5056167;28;20514;-70
2023/12/27 10:04:07;;;;;;;9.30;3.20;;;8.00;99.90;;;;;;5048350;28;20551;-71
2023/12/27 10:06:43;;;;;;;9.30;2.90;;;8.00;99.90;;;;;;5060280;28;20864;-70
2023/12/27 10:09:12;;;;;;;10.30;3.27;;;8.00;99.90;;;;;;5050036;28;20819;-71
2023/12/27 10:11:45;;;;;;;9.87;3.53;;;8.10;99.90;;;;;;5043677;28;20476;-68
2023/12/27 10:14:14;;;;;;;9.90;2.77;;;8.30;99.90;;;;;;5050843;28;20440;-70
2023/12/27 10:16:42;;;;;;;8.87;3.00;;;8.40;99.90;;;;;;5046771;28;20945;-69
2023/12/27 10:19:37;;;;;;;8.60;2.43;;;8.50;99.90;;;;;;5046653;28;20849;-71
2023/12/27 10:22:06;;;;;;;10.50;2.80;;;8.70;99.90;;;;;;5045187;28;20535;-72
2023/12/27 10:24:34;;;;;;;10.80;3.00;;;9.20;99.90;;;;;;5042714;28;20504;-73
2023/12/27 10:27:03;;;;;;;11.70;3.03;;;10.10;99.90;;;;;;5047762;28;20510;-70
2023/12/27 10:29:31;;;;;;;8.67;2.77;;;10.80;99.90;;;;;;5046985;28;20456;-70
2023/12/27 10:32:00;;;;;;;10.23;3.03;;;11.20;99.90;;;;;;5048673;28;21205;-70
2023/12/27 10:34:29;;;;;;;9.17;2.73;;;11.30;99.90;;;;;;5040381;28;20449;-72
2023/12/27 10:36:59;;;;;;;7.83;2.67;;;11.30;99.90;;;;;;5041090;28;20734;-69
2023/12/27 10:39:27;;;;;;;8.37;2.60;;;11.10;99.90;;;;;;5039238;28;20909;-71
2023/12/27 10:41:55;;;;;;;11.53;2.70;;;11.00;99.90;;;;;;5050537;28;20430;-68
2023/12/27 10:44:25;;;;;;;8.13;2.60;;;10.90;99.90;;;;;;5046125;28;21019;-71
2023/12/27 10:46:54;;;;;;;9.70;2.70;;;10.90;99.90;;;;;;5045704;28;20953;-68
2023/12/27 10:49:24;;;;;;;11.33;3.50;;;11.20;99.90;;;;;;5045205;28;20455;-70
2023/12/27 10:51:56;;;;;;;11.47;2.80;;;11.20;99.90;;;;;;5043736;28;21022;-70
2023/12/27 10:54:25;;;;;;;8.97;2.83;;;11.20;99.90;;;;;;5045740;28;20530;-69
2023/12/27 10:56:58;;;;;;;10.67;3.10;;;11.20;99.90;;;;;;5037383;28;20440;-68
2023/12/27 10:59:28;;;;;;;8.90;2.80;;;11.30;99.90;;;;;;5037310;28;20460;-68
2023/12/27 11:01:57;;;;;;;8.13;2.50;;;11.40;99.90;;;;;;5032888;28;20510;-68
2023/12/27 11:04:26;;;;;;;9.03;3.03;;;11.50;99.90;;;;;;5036960;28;20455;-69
2023/12/27 11:06:57;;;;;;;13.27;3.73;;;11.60;99.90;;;;;;5038438;28;20463;-69
2023/12/27 11:09:28;;;;;;;7.90;2.57;;;11.70;99.90;;;;;;5036478;28;20468;-69
2023/12/27 11:11:57;;;;;;;7.83;2.50;;;11.60;99.90;;;;;;5036630;28;21043;-71
2023/12/27 11:14:26;;;;;;;9.23;2.40;;;11.50;99.90;;;;;;5036600;28;20957;-69
2023/12/27 11:16:56;;;;;;;8.50;2.50;;;11.60;99.90;;;;;;5034397;28;20543;-69
2023/12/27 11:19:27;;;;;;;9.93;3.00;;;11.60;99.90;;;;;;5040282;28;20498;-72
2023/12/27 11:21:56;;;;;;;11.80;3.10;;;11.50;99.90;;;;;;5040147;28;20468;-70
2023/12/27 11:24:24;;;;;;;10.70;3.47;;;11.40;99.90;;;;;;5042945;28;20530;-71
2023/12/27 11:26:59;;;;;;;8.27;2.80;;;11.40;99.90;;;;;;5038269;28;21026;-70
2023/12/27 11:29:29;;;;;;;9.37;2.70;;;11.30;99.90;;;;;;5038517;28;20453;-69
2023/12/27 11:31:58;;;;;;;9.03;2.70;;;11.40;99.90;;;;;;5037589;28;20479;-69
2023/12/27 11:34:26;;;;;;;8.50;2.67;;;11.40;99.90;;;;;;5041013;28;20555;-71
2023/12/27 11:36:57;;;;;;;9.37;2.43;;;11.40;99.90;;;;;;5045846;28;20440;-70
2023/12/27 11:39:26;;;;;;;9.83;2.57;;;11.50;99.90;;;;;;5045967;28;20895;-69
2023/12/27 11:41:55;;;;;;;9.47;2.37;;;11.60;99.90;;;;;;5046068;28;20505;-70
2023/12/27 11:44:22;;;;;;;8.80;2.90;;;11.70;99.90;;;;;;5045450;28;20482;-69
2023/12/27 11:46:50;;;;;;;9.00;2.67;;;11.80;99.90;;;;;;5045894;28;20454;-69
2023/12/27 11:49:22;;;;;;;7.80;2.50;;;12.10;99.90;;;;;;5041583;28;20465;-68
2023/12/27 11:51:52;;;;;;;7.93;2.50;;;12.30;99.90;;;;;;5041644;28;20973;-70
2023/12/27 11:54:24;;;;;;;10.10;2.50;;;12.50;99.90;;;;;;5041325;28;20869;-69
2023/12/27 11:56:53;;;;;;;10.43;2.73;;;12.50;99.90;;;;;;5037006;28;20462;-69
2023/12/27 11:59:22;;;;;;;9.80;3.10;;;12.50;99.90;;;;;;5031379;28;21095;-69
2023/12/27 12:01:52;;;;;;;9.73;3.10;;;12.60;99.90;;;;;;5045516;28;20941;-71
2023/12/27 12:04:49;;;;;;;9.07;2.10;;;12.70;99.90;;;;;;5039089;28;20445;-71
2023/12/27 12:07:46;;;;;;;10.53;2.50;;;12.70;99.90;;;;;;5041758;28;20953;-70
2023/12/27 12:10:34;;;;;;;9.33;2.80;;;12.70;99.90;;;;;;5036619;28;20448;-70
2023/12/27 12:13:02;;;;;;;7.60;2.20;;;12.60;99.90;;;;;;5040387;28;20504;-69
2023/12/27 12:15:31;;;;;;;9.33;3.10;;;12.50;99.90;;;;;;5040000;28;20441;-70
2023/12/27 12:18:00;;;;;;;9.00;2.50;;;12.50;99.90;;;;;;5040766;28;20522;-70
2023/12/27 12:20:30;;;;;;;9.57;2.77;;;12.40;99.90;;;;;;5038256;28;20448;-70
2023/12/27 12:23:00;;;;;;;8.70;2.70;;;12.30;99.90;;;;;;5039066;28;21135;-69
2023/12/27 12:25:28;;;;;;;8.57;2.87;;;12.30;99.90;;;;;;5040389;28;20815;-69
2023/12/27 12:27:59;;;;;;;9.77;2.40;;;12.30;99.90;;;;;;5042212;28;20464;-69
2023/12/27 12:30:27;;;;;;;10.23;2.30;;;12.40;99.90;;;;;;5043684;28;20464;-70
2023/12/27 12:32:55;;;;;;;7.80;2.40;;;12.30;99.90;;;;;;5047036;28;20491;-70
2023/12/27 12:35:23;;;;;;;7.73;2.33;;;12.40;99.90;;;;;;5038062;28;20456;-68
2023/12/27 12:37:51;;;;;;;9.20;2.50;;;12.40;99.90;;;;;;5040223;28;20563;-70
2023/12/27 12:40:19;;;;;;;9.60;2.80;;;12.40;99.90;;;;;;5048124;28;20968;-73
2023/12/27 12:42:52;;;;;;;9.97;2.77;;;12.40;99.90;;;;;;5046187;28;20470;-70
2023/12/27 12:45:22;;;;;;;8.00;2.43;;;12.40;99.90;;;;;;5042786;28;20994;-68
2023/12/27 12:47:51;;;;;;;7.73;2.30;;;12.30;99.90;;;;;;5047903;28;20462;-70
2023/12/27 12:50:19;;;;;;;9.13;2.07;;;12.30;99.90;;;;;;5049815;28;20440;-70
2023/12/27 12:52:49;;;;;;;9.17;2.50;;;12.30;99.90;;;;;;5044288;28;20480;-69
2023/12/27 12:55:21;;;;;;;8.17;2.20;;;12.20;99.90;;;;;;5042753;28;21165;-71
2023/12/27 12:57:53;;;;;;;8.43;2.40;;;12.20;99.90;;;;;;5043848;28;21292;-71
2023/12/27 13:00:25;;;;;;;8.17;2.30;;;12.20;99.90;;;;;;5045078;28;20444;-70